Bea Sonier — WDF6688 — position and weather

sailwx.info

Track history (hours):
 
Tides and Currents Weather Stations Pressure Air Temp Water Temp Dewpoint Dewpoint Depression Visibility Wind Speed Wind Dir Waves Ship Positions

Bea Sonier

Owner: LeBeouf Bros. Towing, LLC, Houma, LA. More information available from US FCC via Universal Licensing System and Coast Guard Vessel Documentation Center.

Last reported at 2018-Feb-10 00:39 UTC. Time now 2018-Feb-19 06:11 UTC.
Position N 29°34' W 090°30'.
Warning: this ship's position is 9 days out of date.

Length 22 m; draft 3.3 m.

Type: Tug. MMSI: 367476840.

Date/timePositionNaut miles runAvg speedWind from/ knotsBaromVisibWave heightAir tempDewpointWater temp
2018-Feb-10 00:39N 29°34' W 090°30'1 5.3
2018-Feb-10 00:29N 29°34' W 090°31'3 5.5
2018-Feb-09 23:57N 29°34' W 090°34'1 2.4
2018-Feb-09 23:29N 29°35' W 090°35'0 0.6
2018-Feb-09 23:00N 29°35' W 090°36'0 0.0
2018-Feb-09 22:46N 29°35' W 090°36'0 0.2
2018-Feb-09 22:31N 29°35' W 090°36'0 0.0
2018-Feb-09 14:00N 29°35' W 090°36'0 0.0
2018-Feb-09 11:00N 29°35' W 090°36'6 4.0
2018-Feb-09 09:30N 29°36' W 090°43'6 4.0
2018-Feb-09 08:01N 29°32' W 090°47'  
2018-Feb-06 09:35N 29°32' W 090°50'1 8.7
2018-Feb-06 09:28N 29°32' W 090°49'3 7.4
2018-Feb-06 09:00N 29°33' W 090°45'3 5.9
2018-Feb-06 08:30N 29°35' W 090°43'2 3.5
2018-Feb-06 08:00N 29°37' W 090°42'0 0.0
2018-Feb-06 07:30N 29°37' W 090°42'3 5.4
2018-Feb-06 07:00N 29°36' W 090°39'3 6.0
2018-Feb-06 06:30N 29°35' W 090°36'0 0.2
2018-Feb-06 06:00N 29°35' W 090°36'1 1.2
2018-Feb-06 05:30N 29°35' W 090°37'3 5.5
2018-Feb-06 05:00N 29°36' W 090°39'3 5.2
2018-Feb-06 04:30N 29°37' W 090°42'2 4.7
2018-Feb-06 04:00N 29°35' W 090°43'2 4.2
2018-Feb-06 03:30N 29°33' W 090°45'3 5.9
2018-Feb-06 03:00N 29°32' W 090°48'4 6.9
2018-Feb-06 02:24N 29°32' W 090°53'3 7.3
2018-Feb-06 02:00N 29°34' W 090°56'5 0.2
2018-Feb-04 17:04N 29°32' W 090°50'9 5.6
2018-Feb-04 15:30N 29°36' W 090°41'4 7.1
2018-Feb-04 15:00N 29°35' W 090°37'1 2.9
2018-Feb-04 14:30N 29°35' W 090°36'0 0.8
2018-Feb-04 14:00N 29°34' W 090°36'0 0.0
2018-Feb-04 13:30N 29°34' W 090°36'0 0.0
2018-Feb-04 13:00N 29°34' W 090°36'0 0.0
2018-Feb-04 12:30N 29°34' W 090°36'0 0.0
2018-Feb-04 11:59N 29°34' W 090°36'0 0.0
2018-Feb-04 11:30N 29°34' W 090°36'0 0.0
2018-Feb-04 10:00N 29°34' W 090°36'0 0.0
2018-Feb-04 09:00N 29°34' W 090°36'0 0.0
2018-Feb-04 08:30N 29°34' W 090°36'0 0.0
2018-Feb-04 08:00N 29°34' W 090°36'0 0.0
2018-Feb-04 07:30N 29°34' W 090°36'0 0.0
2018-Feb-04 06:59N 29°34' W 090°36'0 0.0
2018-Feb-04 06:30N 29°34' W 090°36'0 0.0
2018-Feb-04 06:01N 29°34' W 090°36'0 0.0
2018-Feb-04 05:30N 29°34' W 090°36'0 0.0
2018-Feb-04 05:00N 29°34' W 090°36'0 0.0
2018-Feb-04 04:30N 29°34' W 090°36'0 0.0
2018-Feb-04 04:00N 29°34' W 090°36'0 0.0
2018-Feb-04 03:30N 29°34' W 090°36'0 0.0
2018-Feb-04 03:00N 29°34' W 090°36'0 0.0
2018-Feb-04 02:30N 29°34' W 090°36'0 0.0
2018-Feb-04 02:00N 29°34' W 090°36'0 0.0
2018-Feb-04 01:30N 29°34' W 090°36'0 0.0
2018-Feb-04 01:00N 29°34' W 090°36'0 0.0
2018-Feb-04 00:30N 29°34' W 090°36'0 0.0
2018-Feb-04 00:00N 29°34' W 090°36'0 0.0
2018-Feb-03 23:29N 29°34' W 090°36'0 0.0
2018-Feb-03 23:00N 29°34' W 090°36'0 0.0
2018-Feb-03 22:30N 29°34' W 090°36'0 0.0
2018-Feb-03 22:00N 29°34' W 090°36'0 0.0
2018-Feb-03 21:30N 29°34' W 090°36'0 0.0
2018-Feb-03 21:00N 29°34' W 090°36'0 0.0
2018-Feb-03 20:30N 29°34' W 090°36'0 0.0
2018-Feb-03 20:00N 29°34' W 090°36'0 0.0
2018-Feb-03 18:30N 29°34' W 090°36'0 0.0
2018-Feb-03 18:01N 29°34' W 090°36'0 0.0
2018-Feb-03 17:30N 29°34' W 090°36'0 0.0
2018-Feb-03 17:00N 29°34' W 090°36'0 0.0
2018-Feb-03 16:00N 29°34' W 090°36'0 0.0
2018-Feb-03 15:30N 29°34' W 090°36'0 0.0
2018-Feb-03 15:00N 29°34' W 090°36'0 0.0
2018-Feb-03 14:30N 29°34' W 090°36'0 0.0
2018-Feb-03 14:00N 29°34' W 090°36'0 0.0
2018-Feb-03 13:30N 29°34' W 090°36'0 0.0
2018-Feb-03 13:00N 29°34' W 090°36'0 0.0
2018-Feb-03 12:30N 29°34' W 090°36'0 0.0
2018-Feb-03 12:00N 29°34' W 090°36'0 0.0
2018-Feb-03 11:30N 29°34' W 090°36'0 0.0
2018-Feb-03 11:00N 29°34' W 090°36'0 0.0
2018-Feb-03 10:30N 29°34' W 090°36'0 0.0
2018-Feb-03 10:00N 29°34' W 090°36'0 0.0
2018-Feb-03 09:30N 29°34' W 090°36'0 0.0
2018-Feb-03 08:58N 29°34' W 090°36'0 0.0
2018-Feb-03 08:30N 29°34' W 090°36'0 0.0
2018-Feb-03 08:00N 29°34' W 090°36'0 0.0
2018-Feb-03 06:30N 29°34' W 090°36'0 0.0
2018-Feb-03 06:00N 29°34' W 090°36'0 0.0
2018-Feb-03 05:29N 29°34' W 090°36'0 0.0
2018-Feb-03 05:00N 29°34' W 090°36'0 0.0
2018-Feb-03 03:56N 29°34' W 090°36'0 0.0
2018-Feb-03 03:26N 29°34' W 090°36'0 0.0
2018-Feb-03 01:58N 29°34' W 090°36'0 0.0
2018-Feb-03 01:29N 29°34' W 090°36'0 0.0
2018-Feb-03 01:00N 29°34' W 090°36'0 0.0
2018-Feb-03 00:30N 29°34' W 090°36'0 0.0
2018-Feb-02 23:57N 29°34' W 090°36'0 0.0
2018-Feb-02 23:29N 29°34' W 090°36'0 0.0
2018-Feb-02 23:00N 29°34' W 090°36'0 0.0
2018-Feb-02 22:30N 29°34' W 090°36'0 0.8
2018-Feb-02 22:00N 29°35' W 090°36'0 0.2
2018-Feb-02 21:30N 29°35' W 090°36'  
Track history (hours):
 
Tides and Currents Weather Stations Pressure Air Temp Water Temp Dewpoint Dewpoint Depression Visibility Wind Speed Wind Dir Waves Ship Positions

Bea Sonier

Owner: LeBeouf Bros. Towing, LLC, Houma, LA. More information available from US FCC via Universal Licensing System and Coast Guard Vessel Documentation Center.

Last reported at 2018-Feb-10 00:39 UTC. Time now 2018-Feb-19 06:11 UTC.
Position N 29°34' W 090°30'.
Warning: this ship's position is 9 days out of date.

Length 22 m; draft 3.3 m.

Type: Tug. MMSI: 367476840.

Date/timePositionNaut miles runAvg speedWind from/ knotsBaromVisibWave heightAir tempDewpointWater temp
2018-Feb-10 00:39N 29°34' W 090°30'1 5.3
2018-Feb-10 00:29N 29°34' W 090°31'3 5.5
2018-Feb-09 23:57N 29°34' W 090°34'1 2.4
2018-Feb-09 23:29N 29°35' W 090°35'0 0.6
2018-Feb-09 23:00N 29°35' W 090°36'0 0.0
2018-Feb-09 22:46N 29°35' W 090°36'0 0.2
2018-Feb-09 22:31N 29°35' W 090°36'0 0.0
2018-Feb-09 14:00N 29°35' W 090°36'0 0.0
2018-Feb-09 11:00N 29°35' W 090°36'6 4.0
2018-Feb-09 09:30N 29°36' W 090°43'6 4.0
2018-Feb-09 08:01N 29°32' W 090°47'  
2018-Feb-06 09:35N 29°32' W 090°50'1 8.7
2018-Feb-06 09:28N 29°32' W 090°49'3 7.4
2018-Feb-06 09:00N 29°33' W 090°45'3 5.9
2018-Feb-06 08:30N 29°35' W 090°43'2 3.5
2018-Feb-06 08:00N 29°37' W 090°42'0 0.0
2018-Feb-06 07:30N 29°37' W 090°42'3 5.4
2018-Feb-06 07:00N 29°36' W 090°39'3 6.0
2018-Feb-06 06:30N 29°35' W 090°36'0 0.2
2018-Feb-06 06:00N 29°35' W 090°36'1 1.2
2018-Feb-06 05:30N 29°35' W 090°37'3 5.5
2018-Feb-06 05:00N 29°36' W 090°39'3 5.2
2018-Feb-06 04:30N 29°37' W 090°42'2 4.7
2018-Feb-06 04:00N 29°35' W 090°43'2 4.2
2018-Feb-06 03:30N 29°33' W 090°45'3 5.9
2018-Feb-06 03:00N 29°32' W 090°48'4 6.9
2018-Feb-06 02:24N 29°32' W 090°53'3 7.3
2018-Feb-06 02:00N 29°34' W 090°56'5 0.2
2018-Feb-04 17:04N 29°32' W 090°50'9 5.6
2018-Feb-04 15:30N 29°36' W 090°41'4 7.1
2018-Feb-04 15:00N 29°35' W 090°37'1 2.9
2018-Feb-04 14:30N 29°35' W 090°36'0 0.8
2018-Feb-04 14:00N 29°34' W 090°36'0 0.0
2018-Feb-04 13:30N 29°34' W 090°36'0 0.0
2018-Feb-04 13:00N 29°34' W 090°36'0 0.0
2018-Feb-04 12:30N 29°34' W 090°36'0 0.0
2018-Feb-04 11:59N 29°34' W 090°36'0 0.0
2018-Feb-04 11:30N 29°34' W 090°36'0 0.0
2018-Feb-04 10:00N 29°34' W 090°36'0 0.0
2018-Feb-04 09:00N 29°34' W 090°36'0 0.0
2018-Feb-04 08:30N 29°34' W 090°36'0 0.0
2018-Feb-04 08:00N 29°34' W 090°36'0 0.0
2018-Feb-04 07:30N 29°34' W 090°36'0 0.0
2018-Feb-04 06:59N 29°34' W 090°36'0 0.0
2018-Feb-04 06:30N 29°34' W 090°36'0 0.0
2018-Feb-04 06:01N 29°34' W 090°36'0 0.0
2018-Feb-04 05:30N 29°34' W 090°36'0 0.0
2018-Feb-04 05:00N 29°34' W 090°36'0 0.0
2018-Feb-04 04:30N 29°34' W 090°36'0 0.0
2018-Feb-04 04:00N 29°34' W 090°36'0 0.0
2018-Feb-04 03:30N 29°34' W 090°36'0 0.0
2018-Feb-04 03:00N 29°34' W 090°36'0 0.0
2018-Feb-04 02:30N 29°34' W 090°36'0 0.0
2018-Feb-04 02:00N 29°34' W 090°36'0 0.0
2018-Feb-04 01:30N 29°34' W 090°36'0 0.0
2018-Feb-04 01:00N 29°34' W 090°36'0 0.0
2018-Feb-04 00:30N 29°34' W 090°36'0 0.0
2018-Feb-04 00:00N 29°34' W 090°36'0 0.0
2018-Feb-03 23:29N 29°34' W 090°36'0 0.0
2018-Feb-03 23:00N 29°34' W 090°36'0 0.0
2018-Feb-03 22:30N 29°34' W 090°36'0 0.0
2018-Feb-03 22:00N 29°34' W 090°36'0 0.0
2018-Feb-03 21:30N 29°34' W 090°36'0 0.0
2018-Feb-03 21:00N 29°34' W 090°36'0 0.0
2018-Feb-03 20:30N 29°34' W 090°36'0 0.0
2018-Feb-03 20:00N 29°34' W 090°36'0 0.0
2018-Feb-03 18:30N 29°34' W 090°36'0 0.0
2018-Feb-03 18:01N 29°34' W 090°36'0 0.0
2018-Feb-03 17:30N 29°34' W 090°36'0 0.0
2018-Feb-03 17:00N 29°34' W 090°36'0 0.0
2018-Feb-03 16:00N 29°34' W 090°36'0 0.0
2018-Feb-03 15:30N 29°34' W 090°36'0 0.0
2018-Feb-03 15:00N 29°34' W 090°36'0 0.0
2018-Feb-03 14:30N 29°34' W 090°36'0 0.0
2018-Feb-03 14:00N 29°34' W 090°36'0 0.0
2018-Feb-03 13:30N 29°34' W 090°36'0 0.0
2018-Feb-03 13:00N 29°34' W 090°36'0 0.0
2018-Feb-03 12:30N 29°34' W 090°36'0 0.0
2018-Feb-03 12:00N 29°34' W 090°36'0 0.0
2018-Feb-03 11:30N 29°34' W 090°36'0 0.0
2018-Feb-03 11:00N 29°34' W 090°36'0 0.0
2018-Feb-03 10:30N 29°34' W 090°36'0 0.0
2018-Feb-03 10:00N 29°34' W 090°36'0 0.0
2018-Feb-03 09:30N 29°34' W 090°36'0 0.0
2018-Feb-03 08:58N 29°34' W 090°36'0 0.0
2018-Feb-03 08:30N 29°34' W 090°36'0 0.0
2018-Feb-03 08:00N 29°34' W 090°36'0 0.0
2018-Feb-03 06:30N 29°34' W 090°36'0 0.0
2018-Feb-03 06:00N 29°34' W 090°36'0 0.0
2018-Feb-03 05:29N 29°34' W 090°36'0 0.0
2018-Feb-03 05:00N 29°34' W 090°36'0 0.0
2018-Feb-03 03:56N 29°34' W 090°36'0 0.0
2018-Feb-03 03:26N 29°34' W 090°36'0 0.0
2018-Feb-03 01:58N 29°34' W 090°36'0 0.0
2018-Feb-03 01:29N 29°34' W 090°36'0 0.0
2018-Feb-03 01:00N 29°34' W 090°36'0 0.0
2018-Feb-03 00:30N 29°34' W 090°36'0 0.0
2018-Feb-02 23:57N 29°34' W 090°36'0 0.0
2018-Feb-02 23:29N 29°34' W 090°36'0 0.0
2018-Feb-02 23:00N 29°34' W 090°36'0 0.0
2018-Feb-02 22:30N 29°34' W 090°36'0 0.8
2018-Feb-02 22:00N 29°35' W 090°36'0 0.2
2018-Feb-02 21:30N 29°35' W 090°36'  

Dump ship's entire track history